Time;durP1;ratioP1;P1;durP2;ratioP2;P2;SDS_P1;SDS_P2;PMS_P1;PMS_P2;Temp;Humidity;BMP_temperature;BMP_pressure;BME280_temperature;BME280_humidity;BME280_pressure;Samples;Min_cycle;Max_cycle;Signal;HPM_P1;HPM_P2
2023/06/14 00:02:22;;;;;;;2.53;2.30;;;;;;;;;;4957582;28;20051;-77
2023/06/14 00:04:51;;;;;;;2.35;2.15;;;;;;;;;;4954927;28;20074;-76
2023/06/14 00:07:18;;;;;;;2.55;2.30;;;;;;;;;;4951043;28;20043;-77
2023/06/14 00:09:46;;;;;;;2.60;2.40;;;;;;;;;;4954392;28;20047;-77
2023/06/14 00:12:13;;;;;;;2.38;2.25;;;;;;;;;;4951531;28;20039;-76
2023/06/14 00:14:41;;;;;;;2.38;2.17;;;;;;;;;;4952214;28;20039;-76
2023/06/14 00:17:08;;;;;;;2.28;2.10;;;;;;;;;;4955787;28;20122;-77
2023/06/14 00:19:36;;;;;;;2.25;2.05;;;;;;;;;;4954269;28;20134;-77
2023/06/14 00:22:04;;;;;;;2.35;2.15;;;;;;;;;;4948255;28;20043;-76
2023/06/14 00:24:31;;;;;;;2.22;2.10;;;;;;;;;;4951827;28;20088;-77
2023/06/14 00:26:59;;;;;;;2.40;2.20;;;;;;;;;;4949388;28;20058;-77
2023/06/14 00:29:27;;;;;;;1.75;1.65;;;;;;;;;;4957412;28;20047;-77
2023/06/14 00:31:54;;;;;;;1.90;1.80;;;;;;;;;;4953605;28;20090;-77
2023/06/14 00:34:22;;;;;;;2.00;1.90;;;;;;;;;;4955871;28;20158;-76
2023/06/14 00:36:49;;;;;;;1.80;1.70;;;;;;;;;;4953491;28;20421;-76
2023/06/14 00:39:17;;;;;;;1.88;1.77;;;;;;;;;;4946864;28;20122;-77
2023/06/14 00:41:45;;;;;;;2.03;1.92;;;;;;;;;;4947020;28;20571;-77
2023/06/14 00:44:15;;;;;;;4.78;2.08;;;;;;;;;;4952134;28;20051;-76
2023/06/14 00:46:43;;;;;;;2.28;2.10;;;;;;;;;;4946812;28;20047;-76
2023/06/14 00:49:11;;;;;;;1.90;1.80;;;;;;;;;;4959668;28;20054;-76
2023/06/14 00:51:40;;;;;;;2.30;2.20;;;;;;;;;;4954032;28;20039;-76
2023/06/14 00:54:07;;;;;;;2.65;2.10;;;;;;;;;;4945268;28;20080;-76
2023/06/14 00:56:37;;;;;;;2.45;2.25;;;;;;;;;;4945748;28;20106;-76
2023/06/14 00:59:05;;;;;;;2.08;1.98;;;;;;;;;;4942318;28;20040;-76
2023/06/14 01:01:33;;;;;;;2.40;2.30;;;;;;;;;;4951253;28;20432;-76
2023/06/14 01:04:04;;;;;;;2.55;2.25;;;;;;;;;;4947538;28;20055;-75
2023/06/14 01:06:42;;;;;;;2.70;2.50;;;;;;;;;;4943367;28;20055;-76
2023/06/14 01:09:12;;;;;;;2.83;2.63;;;;;;;;;;4954427;28;20054;-76
2023/06/14 01:12:00;;;;;;;2.63;2.42;;;;;;;;;;4943921;28;20057;-76
2023/06/14 01:14:29;;;;;;;2.63;2.42;;;;;;;;;;4955692;28;20394;-76
2023/06/14 01:16:59;;;;;;;2.50;2.30;;;;;;;;;;4951912;28;20560;-76
2023/06/14 01:19:28;;;;;;;3.03;2.38;;;;;;;;;;4945791;28;20050;-76
2023/06/14 01:22:00;;;;;;;2.50;2.30;;;;;;;;;;4941941;28;20058;-76
2023/06/14 01:24:31;;;;;;;2.45;2.25;;;;;;;;;;4954205;28;20433;-76
2023/06/14 01:26:59;;;;;;;;;;;;;;;;;;4966831;28;20051;-76
2023/06/14 01:29:32;;;;;;;2.50;2.30;;;;;;;;;;4983716;28;19926;-76
2023/06/14 01:31:59;;;;;;;;;;;;;;;;;;4976255;28;20458;-76
2023/06/14 01:34:31;;;;;;;2.42;2.22;;;;;;;;;;4949365;28;20017;-76
2023/06/14 01:37:00;;;;;;;2.15;2.03;;;;;;;;;;4947918;28;20047;-76
2023/06/14 01:39:28;;;;;;;2.58;2.45;;;;;;;;;;4949197;28;20047;-76
2023/06/14 01:41:57;;;;;;;2.50;2.30;;;;;;;;;;4950322;28;20131;-76
2023/06/14 01:44:25;;;;;;;2.40;2.30;;;;;;;;;;4976304;28;20496;-76
2023/06/14 01:46:53;;;;;;;2.72;2.53;;;;;;;;;;4948770;28;20306;-76
2023/06/14 01:49:22;;;;;;;3.45;2.63;;;;;;;;;;4943773;28;20039;-76
2023/06/14 01:51:50;;;;;;;2.67;2.40;;;;;;;;;;4949411;28;20058;-76
2023/06/14 01:54:17;;;;;;;3.00;2.80;;;;;;;;;;4948297;28;20055;-76
2023/06/14 01:56:45;;;;;;;2.45;2.35;;;;;;;;;;4950337;28;20049;-76
2023/06/14 01:59:12;;;;;;;2.83;2.60;;;;;;;;;;4948035;28;20043;-76
2023/06/14 02:01:40;;;;;;;4.15;2.33;;;;;;;;;;4951576;28;20129;-76
2023/06/14 02:04:08;;;;;;;2.60;2.45;;;;;;;;;;4945923;28;20375;-76
2023/06/14 02:06:37;;;;;;;2.75;2.55;;;;;;;;;;4977325;28;20612;-76
2023/06/14 02:09:05;;;;;;;2.58;2.40;;;;;;;;;;4949562;28;20050;-77
2023/06/14 02:11:32;;;;;;;2.60;2.40;;;;;;;;;;4950710;28;20071;-76
2023/06/14 02:13:59;;;;;;;2.63;2.42;;;;;;;;;;4942603;28;20094;-76
2023/06/14 02:16:30;;;;;;;2.50;2.30;;;;;;;;;;4941884;28;20043;-76
2023/06/14 02:18:58;;;;;;;2.78;2.58;;;;;;;;;;4974524;28;20042;-76
2023/06/14 02:21:26;;;;;;;1.98;1.88;;;;;;;;;;4940448;28;20090;-76
2023/06/14 02:23:54;;;;;;;2.50;2.30;;;;;;;;;;4977578;28;20039;-76
2023/06/14 02:26:22;;;;;;;2.42;2.22;;;;;;;;;;4979579;28;20142;-76
2023/06/14 02:28:50;;;;;;;3.80;2.55;;;;;;;;;;4948984;28;20524;-76
2023/06/14 02:31:17;;;;;;;3.90;2.30;;;;;;;;;;4943675;28;20048;-76
2023/06/14 02:33:49;;;;;;;2.63;2.42;;;;;;;;;;4935891;28;20133;-76
2023/06/14 02:36:16;;;;;;;3.22;2.92;;;;;;;;;;4962070;28;20043;-76
2023/06/14 02:38:44;;;;;;;7.70;4.53;;;;;;;;;;4939709;28;20043;-76
2023/06/14 02:41:12;;;;;;;7.90;5.03;;;;;;;;;;4979126;28;20512;-76
2023/06/14 02:43:39;;;;;;;14.80;7.18;;;;;;;;;;4947720;28;20102;-76
2023/06/14 02:46:07;;;;;;;18.75;8.27;;;;;;;;;;4979356;28;20763;-76
2023/06/14 02:48:34;;;;;;;17.95;7.80;;;;;;;;;;4947614;28;20051;-76
2023/06/14 02:51:02;;;;;;;12.73;6.97;;;;;;;;;;4946571;28;20049;-76
2023/06/14 02:53:29;;;;;;;16.17;7.55;;;;;;;;;;4944875;28;20055;-76
2023/06/14 02:55:57;;;;;;;14.55;8.07;;;;;;;;;;4958534;28;20129;-76
2023/06/14 02:58:24;;;;;;;15.85;8.07;;;;;;;;;;4949158;28;20106;-76
2023/06/14 03:00:52;;;;;;;16.60;8.63;;;;;;;;;;4946336;28;20053;-76
2023/06/14 03:03:21;;;;;;;15.25;7.75;;;;;;;;;;4967123;28;20485;-76
2023/06/14 03:05:52;;;;;;;;;;;;;;;;;;4957381;28;20046;-76
2023/06/14 03:08:26;;;;;;;13.40;7.40;;;;;;;;;;4944890;28;19934;-76
2023/06/14 03:10:56;;;;;;;16.63;7.93;;;;;;;;;;4941496;28;20133;-76
2023/06/14 03:13:24;;;;;;;18.73;8.45;;;;;;;;;;4977721;28;20039;-76
2023/06/14 03:15:52;;;;;;;15.18;7.45;;;;;;;;;;4955091;28;20043;-76
2023/06/14 03:18:22;;;;;;;10.95;6.82;;;;;;;;;;4951006;28;20063;-76
2023/06/14 03:20:53;;;;;;;11.70;6.88;;;;;;;;;;4942830;28;20051;-76
2023/06/14 03:23:22;;;;;;;10.43;6.53;;;;;;;;;;4944880;28;20055;-76
2023/06/14 03:25:50;;;;;;;13.38;6.72;;;;;;;;;;4955612;28;20461;-76
2023/06/14 03:28:18;;;;;;;14.07;6.80;;;;;;;;;;4941344;28;20046;-76
2023/06/14 03:30:46;;;;;;;10.93;6.18;;;;;;;;;;4946288;28;20105;-76
2023/06/14 03:33:15;;;;;;;13.23;5.90;;;;;;;;;;4977958;28;20150;-76
2023/06/14 03:35:43;;;;;;;8.90;5.90;;;;;;;;;;4950759;28;20051;-76
2023/06/14 03:38:11;;;;;;;9.75;5.28;;;;;;;;;;4964463;28;20130;-76
2023/06/14 03:40:38;;;;;;;9.43;5.55;;;;;;;;;;4951578;28;20494;-75
2023/06/14 03:43:07;;;;;;;8.18;4.88;;;;;;;;;;4946303;28;20143;-76
2023/06/14 03:45:34;;;;;;;7.78;4.88;;;;;;;;;;4957439;28;20051;-76
2023/06/14 03:48:02;;;;;;;6.60;4.30;;;;;;;;;;4944726;28;20050;-76
2023/06/14 03:50:32;;;;;;;5.78;3.85;;;;;;;;;;4972512;28;20043;-76
2023/06/14 03:53:01;;;;;;;6.38;4.15;;;;;;;;;;4953997;28;20421;-76
2023/06/14 03:55:31;;;;;;;5.78;3.83;;;;;;;;;;4947976;28;20042;-76
2023/06/14 03:58:02;;;;;;;6.05;3.67;;;;;;;;;;4940306;28;20273;-77
2023/06/14 04:00:30;;;;;;;6.95;3.70;;;;;;;;;;4949354;28;20059;-76
2023/06/14 04:02:57;;;;;;;5.53;3.78;;;;;;;;;;4941509;28;20051;-76
2023/06/14 04:05:26;;;;;;;4.93;3.58;;;;;;;;;;4942636;28;20102;-77
2023/06/14 04:07:55;;;;;;;4.72;3.42;;;;;;;;;;4974382;28;20395;-77
2023/06/14 04:10:23;;;;;;;5.00;3.33;;;;;;;;;;4954331;28;20055;-77
2023/06/14 04:12:51;;;;;;;4.68;3.40;;;;;;;;;;4940272;28;20102;-76
2023/06/14 04:18:14;;;;;;;3.30;3.00;;;;;;;;;;4943765;28;20564;-78
2023/06/14 04:20:41;;;;;;;3.70;3.08;;;;;;;;;;4966997;28;20047;-78
2023/06/14 04:23:13;;;;;;;5.72;2.47;;;;;;;;;;4933821;29;20077;-78
2023/06/14 04:25:44;;;;;;;3.53;2.85;;;;;;;;;;4951029;28;20047;-77
2023/06/14 04:28:15;;;;;;;2.55;2.35;;;;;;;;;;4934559;29;20054;-79
2023/06/14 04:30:44;;;;;;;2.92;2.70;;;;;;;;;;4944755;28;20046;-76
2023/06/14 04:33:15;;;;;;;3.40;3.10;;;;;;;;;;4933759;29;20821;-76
2023/06/14 04:35:42;;;;;;;3.17;2.88;;;;;;;;;;4945915;28;20079;-79
2023/06/14 04:38:10;;;;;;;3.88;2.65;;;;;;;;;;4925368;29;20476;-77
2023/06/14 04:40:45;;;;;;;3.78;2.90;;;;;;;;;;4928555;29;20062;-77
2023/06/14 04:43:18;;;;;;;2.42;2.22;;;;;;;;;;4921738;29;20465;-76
2023/06/14 04:45:48;;;;;;;3.08;2.35;;;;;;;;;;4923070;29;20138;-78
2023/06/14 04:48:18;;;;;;;2.30;2.20;;;;;;;;;;4943357;28;20055;-77
2023/06/14 04:50:46;;;;;;;2.60;2.50;;;;;;;;;;4932276;28;20063;-78
2023/06/14 04:53:22;;;;;;;2.70;2.50;;;;;;;;;;4934329;29;20048;-79
2023/06/14 04:55:54;;;;;;;4.22;2.42;;;;;;;;;;4941904;28;20045;-78
2023/06/14 04:58:22;;;;;;;2.53;2.33;;;;;;;;;;4956788;28;20080;-78
2023/06/14 05:00:56;;;;;;;3.58;2.20;;;;;;;;;;4927428;29;20058;-79
2023/06/14 05:03:34;;;;;;;2.80;2.60;;;;;;;;;;4938829;28;20040;-78
2023/06/14 05:06:02;;;;;;;2.75;2.55;;;;;;;;;;4930240;28;20474;-79
2023/06/14 05:08:32;;;;;;;2.75;2.55;;;;;;;;;;4926697;29;20399;-77
2023/06/14 05:11:05;;;;;;;2.80;2.70;;;;;;;;;;4924136;29;20051;-77
2023/06/14 05:13:34;;;;;;;3.28;2.72;;;;;;;;;;4958889;28;20071;-78
2023/06/14 05:16:06;;;;;;;3.42;3.08;;;;;;;;;;4942690;28;20131;-79
2023/06/14 05:18:35;;;;;;;3.50;3.20;;;;;;;;;;4931998;29;20055;-77
2023/06/14 05:21:04;;;;;;;3.35;2.75;;;;;;;;;;4930170;29;20055;-78
2023/06/14 05:23:57;;;;;;;3.30;3.10;;;;;;;;;;4923596;29;20130;-78
2023/06/14 05:26:28;;;;;;;2.72;2.53;;;;;;;;;;4933066;28;20529;-78
2023/06/14 05:29:01;;;;;;;2.42;2.15;;;;;;;;;;4929810;29;20138;-77
2023/06/14 05:31:28;;;;;;;4.00;3.58;;;;;;;;;;4930641;29;20047;-78
2023/06/14 05:33:56;;;;;;;2.83;2.63;;;;;;;;;;4931994;29;20514;-77
2023/06/14 05:36:24;;;;;;;2.75;2.55;;;;;;;;;;4930172;29;20562;-77
2023/06/14 05:38:57;;;;;;;2.95;2.72;;;;;;;;;;4924832;29;20244;-77
2023/06/14 05:41:28;;;;;;;2.78;2.47;;;;;;;;;;4926904;29;20562;-76
2023/06/14 05:43:56;;;;;;;2.47;2.28;;;;;;;;;;4926350;29;20522;-79
2023/06/14 05:46:25;;;;;;;2.55;2.35;;;;;;;;;;4930362;29;20378;-77
2023/06/14 05:48:56;;;;;;;2.42;2.22;;;;;;;;;;4926175;29;20134;-77
2023/06/14 05:51:24;;;;;;;2.53;2.33;;;;;;;;;;4933793;28;20798;-77
2023/06/14 05:53:52;;;;;;;2.92;2.60;;;;;;;;;;4934614;29;20042;-77
2023/06/14 05:56:20;;;;;;;2.50;2.30;;;;;;;;;;4932504;28;20051;-78
2023/06/14 05:58:47;;;;;;;2.65;2.45;;;;;;;;;;4929299;28;20055;-78
2023/06/14 06:01:15;;;;;;;2.78;2.58;;;;;;;;;;4935258;29;20466;-77
2023/06/14 06:03:45;;;;;;;3.10;2.90;;;;;;;;;;4932156;29;20101;-78
2023/06/14 06:06:14;;;;;;;2.70;2.50;;;;;;;;;;4939286;28;20036;-78
2023/06/14 06:08:49;;;;;;;2.58;2.40;;;;;;;;;;4933908;28;20330;-77
2023/06/14 06:11:16;;;;;;;2.80;2.60;;;;;;;;;;4947534;28;20047;-75
2023/06/14 06:13:44;;;;;;;2.50;2.35;;;;;;;;;;4937139;28;20556;-77
2023/06/14 06:16:16;;;;;;;2.72;2.47;;;;;;;;;;4923928;29;20059;-77
2023/06/14 06:18:44;;;;;;;2.90;2.47;;;;;;;;;;4933012;29;20047;-77
2023/06/14 06:21:12;;;;;;;2.40;2.30;;;;;;;;;;4930219;28;20391;-78
2023/06/14 06:23:39;;;;;;;2.17;2.08;;;;;;;;;;4934879;28;20214;-79
2023/06/14 06:26:07;;;;;;;2.60;2.40;;;;;;;;;;4930783;29;20525;-77
2023/06/14 06:28:35;;;;;;;3.00;1.95;;;;;;;;;;4932152;29;20474;-78
2023/06/14 06:31:06;;;;;;;2.10;2.00;;;;;;;;;;4925276;29;20071;-78
2023/06/14 06:33:35;;;;;;;1.98;1.88;;;;;;;;;;4931276;29;20406;-77
2023/06/14 06:36:02;;;;;;;2.20;2.10;;;;;;;;;;4944363;28;20047;-78
2023/06/14 06:38:30;;;;;;;2.40;2.20;;;;;;;;;;4924012;29;20058;-77
2023/06/14 06:40:57;;;;;;;2.38;2.17;;;;;;;;;;4935493;29;20565;-77
2023/06/14 06:43:25;;;;;;;2.30;2.20;;;;;;;;;;4929926;29;20048;-78
2023/06/14 06:45:52;;;;;;;2.03;1.90;;;;;;;;;;4932472;29;20051;-78
2023/06/14 06:48:20;;;;;;;2.05;1.90;;;;;;;;;;4928874;28;20501;-78
2023/06/14 06:50:47;;;;;;;2.40;2.30;;;;;;;;;;4942100;28;20059;-76
2023/06/14 06:53:15;;;;;;;2.40;2.20;;;;;;;;;;4930580;28;20107;-78
2023/06/14 06:55:47;;;;;;;3.33;2.30;;;;;;;;;;4943575;28;20141;-77
2023/06/14 06:58:15;;;;;;;2.35;2.17;;;;;;;;;;4935250;28;20039;-78
2023/06/14 07:00:42;;;;;;;2.00;1.90;;;;;;;;;;4932019;29;20087;-79
2023/06/14 07:03:10;;;;;;;2.83;2.10;;;;;;;;;;4923661;29;20051;-77
2023/06/14 07:05:37;;;;;;;2.00;1.90;;;;;;;;;;4935084;28;20106;-77
2023/06/14 07:08:05;;;;;;;1.90;1.80;;;;;;;;;;4938587;29;20553;-78
2023/06/14 07:10:32;;;;;;;1.40;1.38;;;;;;;;;;4940322;28;20051;-77
2023/06/14 07:13:00;;;;;;;2.00;1.90;;;;;;;;;;4927566;28;20354;-77
2023/06/14 07:15:27;;;;;;;2.00;1.90;;;;;;;;;;4929288;28;20044;-77
2023/06/14 07:17:59;;;;;;;2.03;1.85;;;;;;;;;;4924195;29;20456;-78
2023/06/14 07:20:28;;;;;;;1.90;1.80;;;;;;;;;;4928123;28;20050;-78
2023/06/14 07:22:55;;;;;;;2.15;2.05;;;;;;;;;;4926515;29;20052;-77
2023/06/14 07:25:23;;;;;;;2.20;2.10;;;;;;;;;;4932373;29;20672;-77
2023/06/14 07:27:50;;;;;;;1.85;1.75;;;;;;;;;;4928064;29;20048;-78
2023/06/14 07:30:18;;;;;;;1.90;1.80;;;;;;;;;;4926893;29;20052;-77
2023/06/14 07:32:45;;;;;;;1.70;1.67;;;;;;;;;;4928107;28;20052;-78
2023/06/14 07:35:14;;;;;;;1.83;1.73;;;;;;;;;;4926085;29;20043;-78
2023/06/14 07:37:42;;;;;;;1.80;1.70;;;;;;;;;;4930210;28;20130;-77
2023/06/14 07:40:10;;;;;;;1.88;1.80;;;;;;;;;;4931917;29;20067;-77
2023/06/14 07:42:37;;;;;;;1.70;1.60;;;;;;;;;;4932587;29;20705;-77
2023/06/14 07:45:06;;;;;;;1.83;1.73;;;;;;;;;;4959748;28;20074;-77
2023/06/14 07:47:33;;;;;;;2.92;1.98;;;;;;;;;;4927566;28;20063;-77
2023/06/14 07:50:01;;;;;;;2.78;1.92;;;;;;;;;;4912925;28;20060;-76
2023/06/14 07:52:28;;;;;;;1.88;1.75;;;;;;;;;;4927651;28;20055;-78
2023/06/14 07:54:56;;;;;;;1.80;1.70;;;;;;;;;;4949416;28;20050;-77
2023/06/14 07:57:24;;;;;;;1.70;1.60;;;;;;;;;;4924028;28;20047;-77
2023/06/14 07:59:51;;;;;;;1.77;1.67;;;;;;;;;;4923133;29;20048;-77
2023/06/14 08:02:19;;;;;;;1.77;1.67;;;;;;;;;;4928774;28;20172;-77
2023/06/14 08:04:48;;;;;;;1.73;1.63;;;;;;;;;;4929806;28;20071;-77
2023/06/14 08:07:18;;;;;;;1.60;1.60;;;;;;;;;;4937728;28;20540;-77
2023/06/14 08:09:45;;;;;;;2.10;1.95;;;;;;;;;;4930432;28;20501;-78
2023/06/14 08:12:13;;;;;;;1.88;1.77;;;;;;;;;;4931665;28;20052;-77
2023/06/14 08:14:40;;;;;;;1.50;1.50;;;;;;;;;;4934559;28;20561;-78
2023/06/14 08:17:08;;;;;;;2.00;1.90;;;;;;;;;;4923532;29;20154;-80
2023/06/14 08:19:36;;;;;;;2.55;1.90;;;;;;;;;;4931642;29;20051;-78
2023/06/14 08:22:04;;;;;;;4.32;1.75;;;;;;;;;;4932134;28;20105;-78
2023/06/14 08:24:32;;;;;;;2.15;2.03;;;;;;;;;;4927922;29;20510;-78
2023/06/14 08:27:01;;;;;;;1.90;1.80;;;;;;;;;;4924970;29;20184;-79
2023/06/14 08:29:30;;;;;;;1.90;1.80;;;;;;;;;;4944246;28;20114;-77
2023/06/14 08:31:57;;;;;;;1.90;1.80;;;;;;;;;;4927396;28;20442;-78
2023/06/14 08:34:25;;;;;;;3.05;1.90;;;;;;;;;;4931370;29;20055;-78
2023/06/14 08:36:53;;;;;;;1.77;1.67;;;;;;;;;;4928008;28;20040;-77
2023/06/14 08:39:21;;;;;;;1.75;1.67;;;;;;;;;;4932819;28;20402;-77
2023/06/14 08:41:49;;;;;;;2.17;1.50;;;;;;;;;;4927576;28;20040;-77
2023/06/14 08:44:17;;;;;;;1.90;1.80;;;;;;;;;;4946968;28;20052;-78
2023/06/14 08:46:45;;;;;;;1.70;1.60;;;;;;;;;;4931209;28;20062;-77
2023/06/14 08:49:14;;;;;;;1.80;1.58;;;;;;;;;;4932458;28;20481;-78
2023/06/14 08:51:41;;;;;;;1.58;1.55;;;;;;;;;;4939834;28;20048;-77
2023/06/14 08:54:09;;;;;;;1.65;1.55;;;;;;;;;;4941906;28;20138;-78
2023/06/14 08:56:41;;;;;;;1.60;1.50;;;;;;;;;;4927295;29;20480;-77
2023/06/14 08:59:09;;;;;;;1.85;1.75;;;;;;;;;;4954420;28;20490;-77
2023/06/14 09:01:38;;;;;;;7.22;1.95;;;;;;;;;;4931467;28;20506;-78
2023/06/14 09:04:06;;;;;;;1.70;1.60;;;;;;;;;;4939142;28;20066;-78
2023/06/14 09:06:33;;;;;;;1.67;1.58;;;;;;;;;;4934243;28;20062;-78
2023/06/14 09:09:03;;;;;;;1.30;1.30;;;;;;;;;;4926935;28;20056;-78
2023/06/14 09:11:31;;;;;;;1.42;1.33;;;;;;;;;;4924103;29;20437;-77
2023/06/14 09:13:59;;;;;;;2.17;1.92;;;;;;;;;;4921865;28;20062;-79
2023/06/14 09:16:26;;;;;;;1.80;1.70;;;;;;;;;;4925413;29;20144;-78
2023/06/14 09:18:54;;;;;;;4.05;2.50;;;;;;;;;;4926082;29;20054;-78
2023/06/14 09:21:24;;;;;;;1.80;1.70;;;;;;;;;;4930186;29;20056;-78
2023/06/14 09:23:53;;;;;;;1.70;1.60;;;;;;;;;;4925967;29;20048;-76
2023/06/14 09:26:22;;;;;;;4.03;1.90;;;;;;;;;;4939029;28;20100;-76
2023/06/14 09:28:55;;;;;;;1.83;1.70;;;;;;;;;;4933581;28;20519;-78
2023/06/14 09:31:22;;;;;;;1.75;1.65;;;;;;;;;;4930886;29;20186;-76
2023/06/14 09:33:50;;;;;;;2.00;1.55;;;;;;;;;;4939065;28;20073;-78
2023/06/14 09:36:21;;;;;;;2.55;1.58;;;;;;;;;;4932697;29;20491;-77
2023/06/14 09:38:52;;;;;;;1.40;1.30;;;;;;;;;;4943365;29;20158;-77
2023/06/14 09:41:20;;;;;;;2.35;1.48;;;;;;;;;;4941223;28;20054;-78
2023/06/14 09:43:48;;;;;;;1.60;1.50;;;;;;;;;;4937209;28;20067;-79
2023/06/14 09:46:16;;;;;;;1.38;1.38;;;;;;;;;;4938647;28;20051;-79
2023/06/14 09:48:43;;;;;;;5.20;1.55;;;;;;;;;;4944090;28;20057;-78
2023/06/14 09:51:14;;;;;;;1.63;1.52;;;;;;;;;;4937817;28;20052;-78
2023/06/14 09:53:43;;;;;;;1.52;1.48;;;;;;;;;;4934071;29;20412;-77
2023/06/14 09:56:11;;;;;;;1.70;1.60;;;;;;;;;;4933859;29;20051;-78
2023/06/14 09:58:40;;;;;;;2.05;1.58;;;;;;;;;;4935886;29;20473;-77
2023/06/14 10:01:09;;;;;;;1.50;1.40;;;;;;;;;;4943906;29;20039;-76
2023/06/14 10:03:38;;;;;;;1.95;1.70;;;;;;;;;;4937445;28;20159;-79
2023/06/14 10:06:26;;;;;;;1.63;1.52;;;;;;;;;;4932291;29;20545;-77
2023/06/14 10:08:56;;;;;;;1.40;1.30;;;;;;;;;;4932184;29;20322;-78
2023/06/14 10:11:25;;;;;;;1.38;1.30;;;;;;;;;;4924208;28;20825;-78
2023/06/14 10:13:53;;;;;;;1.00;1.00;;;;;;;;;;4934631;29;20059;-78
2023/06/14 10:16:25;;;;;;;1.33;1.30;;;;;;;;;;4933142;29;20047;-78
2023/06/14 10:19:00;;;;;;;2.92;2.83;;;;;;;;;;4929011;28;20494;-79
2023/06/14 10:21:38;;;;;;;1.83;1.60;;;;;;;;;;4932203;28;20666;-76
2023/06/14 10:24:07;;;;;;;1.67;1.58;;;;;;;;;;4930665;28;20052;-78
2023/06/14 10:26:35;;;;;;;1.40;1.40;;;;;;;;;;4930045;29;20089;-78
2023/06/14 10:29:09;;;;;;;1.85;1.40;;;;;;;;;;4931176;29;20485;-79
2023/06/14 10:31:42;;;;;;;1.38;1.27;;;;;;;;;;4935186;29;20059;-79
2023/06/14 10:34:10;;;;;;;1.58;1.48;;;;;;;;;;4934063;29;20040;-78
2023/06/14 10:36:38;;;;;;;1.98;1.50;;;;;;;;;;4937440;28;20044;-78
2023/06/14 10:39:11;;;;;;;1.80;1.70;;;;;;;;;;4934989;28;20278;-78
2023/06/14 10:41:40;;;;;;;1.30;1.30;;;;;;;;;;4940090;28;20058;-78
2023/06/14 10:44:13;;;;;;;1.60;1.30;;;;;;;;;;4935070;29;20528;-79
2023/06/14 10:46:46;;;;;;;1.45;1.38;;;;;;;;;;4934101;29;20059;-78
2023/06/14 10:49:19;;;;;;;2.00;1.90;;;;;;;;;;4938102;29;20400;-78
2023/06/14 10:51:51;;;;;;;2.45;1.95;;;;;;;;;;4938666;29;20506;-77
2023/06/14 10:54:23;;;;;;;1.45;1.35;;;;;;;;;;4933838;29;20498;-77
2023/06/14 10:56:51;;;;;;;1.45;1.30;;;;;;;;;;4928444;28;20051;-79
2023/06/14 10:59:20;;;;;;;1.40;1.30;;;;;;;;;;4936888;28;20043;-77
2023/06/14 11:02:19;;;;;;;1.33;1.33;;;;;;;;;;4933688;29;20047;-78
2023/06/14 11:04:48;;;;;;;1.52;1.42;;;;;;;;;;4938080;28;20071;-78
2023/06/14 11:07:27;;;;;;;1.30;1.20;;;;;;;;;;4931506;28;20047;-78
2023/06/14 11:10:11;;;;;;;1.70;1.60;;;;;;;;;;4932338;29;20056;-79
2023/06/14 11:12:42;;;;;;;1.67;1.60;;;;;;;;;;4931100;29;20399;-79
2023/06/14 11:15:10;;;;;;;;;;;;;;;;;;4961811;28;20047;-77
2023/06/14 11:17:37;;;;;;;1.13;1.13;;;;;;;;;;4931361;28;20134;-78
2023/06/14 11:20:09;;;;;;;1.50;1.40;;;;;;;;;;4931174;28;20052;-78
2023/06/14 11:22:36;;;;;;;;;;;;;;;;;;4931428;29;20115;-78
2023/06/14 11:25:04;;;;;;;1.40;1.30;;;;;;;;;;4938098;28;20293;-77
2023/06/14 11:27:33;;;;;;;1.30;1.30;;;;;;;;;;4931658;29;20040;-78
2023/06/14 11:30:01;;;;;;;1.50;1.40;;;;;;;;;;4934071;28;20577;-79
2023/06/14 11:32:32;;;;;;;1.95;1.75;;;;;;;;;;4947171;28;20055;-77
2023/06/14 11:35:00;;;;;;;2.30;1.45;;;;;;;;;;4935618;28;20047;-78
2023/06/14 11:37:32;;;;;;;1.40;1.40;;;;;;;;;;4928695;29;20110;-79
2023/06/14 11:40:01;;;;;;;1.48;1.30;;;;;;;;;;4930195;28;20054;-78
2023/06/14 11:42:28;;;;;;;1.30;1.23;;;;;;;;;;4931880;29;20035;-77
2023/06/14 11:44:56;;;;;;;1.38;1.27;;;;;;;;;;4932382;28;20114;-79
2023/06/14 11:47:36;;;;;;;3.22;1.20;;;;;;;;;;4958045;28;20063;-79
2023/06/14 11:50:04;;;;;;;1.38;1.38;;;;;;;;;;4932053;28;20162;-78
2023/06/14 11:52:33;;;;;;;1.30;1.30;;;;;;;;;;4935088;29;20048;-80
2023/06/14 11:55:04;;;;;;;1.60;1.50;;;;;;;;;;4931336;29;20127;-77
2023/06/14 11:57:35;;;;;;;2.55;1.40;;;;;;;;;;4938248;29;20573;-78
2023/06/14 12:00:12;;;;;;;1.48;1.38;;;;;;;;;;4937067;28;20127;-78
2023/06/14 12:02:40;;;;;;;1.55;1.45;;;;;;;;;;4936149;29;20085;-79
2023/06/14 12:05:12;;;;;;;3.65;1.85;;;;;;;;;;4960959;23;20117;-77
2023/06/14 12:07:45;;;;;;;;;;;;;;;;;;4960618;28;20046;-75
2023/06/14 12:10:13;;;;;;;1.40;1.30;;;;;;;;;;4949166;28;19927;-76
2023/06/14 12:12:41;;;;;;;1.30;1.30;;;;;;;;;;4943742;28;20135;-76
2023/06/14 12:15:11;;;;;;;1.58;1.38;;;;;;;;;;4944650;28;20047;-76
2023/06/14 12:17:43;;;;;;;1.23;1.23;;;;;;;;;;4947366;28;20045;-76
2023/06/14 12:20:13;;;;;;;1.58;1.58;;;;;;;;;;4946710;28;20109;-76
2023/06/14 12:22:51;;;;;;;1.40;1.33;;;;;;;;;;4948921;28;20410;-77
2023/06/14 12:25:33;;;;;;;1.30;1.30;;;;;;;;;;4948232;28;20043;-77
2023/06/14 12:28:05;;;;;;;1.23;1.23;;;;;;;;;;4947617;28;20215;-78
2023/06/14 12:30:33;;;;;;;1.40;1.40;;;;;;;;;;4951273;28;20043;-80
2023/06/14 12:33:02;;;;;;;1.30;1.20;;;;;;;;;;4953175;28;20039;-76
2023/06/14 12:35:30;;;;;;;1.08;1.08;;;;;;;;;;4948234;28;20051;-77
2023/06/14 12:37:57;;;;;;;3.97;1.20;;;;;;;;;;4945765;28;20043;-76
2023/06/14 12:40:24;;;;;;;1.67;1.23;;;;;;;;;;4950157;28;20054;-77
2023/06/14 12:42:52;;;;;;;1.20;1.08;;;;;;;;;;4947605;28;20051;-77
2023/06/14 12:45:19;;;;;;;1.67;0.90;;;;;;;;;;4945690;28;20055;-78
2023/06/14 12:47:47;;;;;;;1.40;1.30;;;;;;;;;;4944642;28;20097;-78
2023/06/14 12:50:14;;;;;;;1.63;1.63;;;;;;;;;;4952492;28;20143;-78
2023/06/14 12:52:42;;;;;;;1.23;1.20;;;;;;;;;;4948092;28;20102;-78
2023/06/14 12:55:10;;;;;;;1.08;1.00;;;;;;;;;;4947952;28;20049;-78
2023/06/14 12:57:38;;;;;;;1.23;1.20;;;;;;;;;;4949000;28;20046;-78
2023/06/14 13:00:07;;;;;;;1.60;1.50;;;;;;;;;;4941511;28;20150;-78
2023/06/14 13:02:35;;;;;;;1.35;1.23;;;;;;;;;;4947077;28;20051;-78
2023/06/14 13:05:05;;;;;;;1.30;1.10;;;;;;;;;;4949299;28;20586;-80
2023/06/14 13:07:33;;;;;;;;;;;;;;;;;;4946137;28;20051;-78
2023/06/14 13:10:00;;;;;;;1.50;1.30;;;;;;;;;;4950886;28;20379;-77
2023/06/14 13:12:28;;;;;;;1.10;1.10;;;;;;;;;;4951696;28;20058;-77
2023/06/14 13:14:55;;;;;;;1.65;1.10;;;;;;;;;;4951350;28;20077;-77
2023/06/14 13:17:23;;;;;;;1.00;1.00;;;;;;;;;;4942188;28;20054;-78
2023/06/14 13:19:50;;;;;;;1.00;1.00;;;;;;;;;;4947282;28;20054;-77
2023/06/14 13:22:18;;;;;;;1.02;1.02;;;;;;;;;;4947597;28;20070;-77
2023/06/14 13:24:45;;;;;;;1.50;1.40;;;;;;;;;;4954989;28;20411;-75
2023/06/14 13:27:14;;;;;;;1.10;1.10;;;;;;;;;;4948647;28;20047;-77
2023/06/14 13:29:41;;;;;;;1.88;1.48;;;;;;;;;;4952786;28;20047;-76
2023/06/14 13:32:09;;;;;;;1.30;1.30;;;;;;;;;;4948482;28;20284;-77
2023/06/14 13:34:36;;;;;;;1.33;1.30;;;;;;;;;;4952064;28;20055;-76
2023/06/14 13:37:04;;;;;;;1.10;1.10;;;;;;;;;;4950603;28;20572;-76
2023/06/14 13:39:31;;;;;;;1.40;1.20;;;;;;;;;;4954914;28;20044;-76
2023/06/14 13:41:59;;;;;;;1.30;1.30;;;;;;;;;;4957665;28;20044;-76
2023/06/14 13:44:26;;;;;;;1.20;1.20;;;;;;;;;;4943884;28;20066;-77
2023/06/14 13:46:54;;;;;;;1.02;1.02;;;;;;;;;;4955178;28;20115;-77
2023/06/14 13:49:21;;;;;;;1.20;1.20;;;;;;;;;;4949861;28;20055;-77
2023/06/14 13:51:49;;;;;;;1.08;1.08;;;;;;;;;;4960241;28;20129;-77
2023/06/14 13:54:20;;;;;;;1.00;1.00;;;;;;;;;;4952272;28;20139;-77
2023/06/14 13:56:48;;;;;;;1.10;1.10;;;;;;;;;;4955157;28;20047;-76
2023/06/14 13:59:16;;;;;;;1.20;1.20;;;;;;;;;;4957774;28;20047;-76
2023/06/14 14:01:43;;;;;;;1.20;1.20;;;;;;;;;;4944396;28;20139;-76
2023/06/14 14:04:12;;;;;;;1.75;1.70;;;;;;;;;;4946863;28;20619;-76
2023/06/14 14:06:39;;;;;;;1.13;1.13;;;;;;;;;;4951481;28;20456;-77
2023/06/14 14:09:09;;;;;;;0.82;0.82;;;;;;;;;;4946882;28;20158;-76
2023/06/14 14:11:36;;;;;;;1.00;1.00;;;;;;;;;;4950439;28;20051;-76
2023/06/14 14:14:04;;;;;;;1.10;1.10;;;;;;;;;;4950570;28;20138;-77
2023/06/14 14:16:33;;;;;;;1.52;1.10;;;;;;;;;;4955088;28;20110;-76
2023/06/14 14:19:01;;;;;;;1.00;1.00;;;;;;;;;;4958643;28;20074;-75
2023/06/14 14:21:29;;;;;;;3.53;1.30;;;;;;;;;;4952976;28;20118;-78
2023/06/14 14:23:56;;;;;;;1.60;1.33;;;;;;;;;;4948602;28;20116;-76
2023/06/14 14:26:24;;;;;;;1.40;1.33;;;;;;;;;;4947546;28;20114;-76
2023/06/14 14:28:52;;;;;;;1.70;1.10;;;;;;;;;;4948472;28;20043;-76
2023/06/14 14:31:20;;;;;;;1.13;1.13;;;;;;;;;;4948999;28;20059;-77
2023/06/14 14:33:47;;;;;;;1.30;1.30;;;;;;;;;;4950434;28;20520;-77
2023/06/14 14:36:15;;;;;;;1.42;1.42;;;;;;;;;;4964952;28;20522;-77
2023/06/14 14:38:42;;;;;;;1.23;1.23;;;;;;;;;;4960579;28;20101;-76
2023/06/14 14:41:10;;;;;;;1.25;1.25;;;;;;;;;;4956377;28;20122;-77
2023/06/14 14:43:37;;;;;;;1.60;1.50;;;;;;;;;;4955755;28;20508;-76
2023/06/14 14:46:05;;;;;;;1.30;1.20;;;;;;;;;;4954388;28;20047;-76
2023/06/14 14:48:32;;;;;;;1.63;1.58;;;;;;;;;;4949826;28;20520;-76
2023/06/14 14:51:02;;;;;;;1.30;1.23;;;;;;;;;;4955973;28;20058;-76
2023/06/14 14:53:29;;;;;;;1.33;1.33;;;;;;;;;;4968760;28;20300;-76
2023/06/14 14:55:57;;;;;;;1.30;1.20;;;;;;;;;;4949396;28;20139;-76
2023/06/14 14:58:24;;;;;;;4.60;1.17;;;;;;;;;;4957214;28;20134;-76
2023/06/14 15:00:52;;;;;;;1.40;1.30;;;;;;;;;;4948326;28;20157;-76